sensor_id;sensor_type;location;lat;lon;timestamp;P1;durP1;ratioP1;P2;durP2;ratioP2
8171;SDS011;4127;47.908;10.850;2023-04-24T09:32:23;4.20;;;2.37;;
8171;SDS011;4127;47.908;10.850;2023-04-24T09:35:16;3.17;;;1.93;;
8171;SDS011;4127;47.908;10.850;2023-04-24T09:46:54;2.40;;;1.70;;
8171;SDS011;4127;47.908;10.850;2023-04-24T09:49:35;1.97;;;1.70;;
8171;SDS011;4127;47.908;10.850;2023-04-24T09:52:06;1.70;;;1.57;;
8171;SDS011;4127;47.908;10.850;2023-04-24T09:54:35;1.90;;;1.70;;
8171;SDS011;4127;47.908;10.850;2023-04-24T09:57:04;2.00;;;1.90;;
8171;SDS011;4127;47.908;10.850;2023-04-24T09:59:33;2.20;;;1.93;;
8171;SDS011;4127;47.908;10.850;2023-04-24T10:02:03;2.10;;;1.93;;
8171;SDS011;4127;47.908;10.850;2023-04-24T10:04:53;2.33;;;1.80;;
8171;SDS011;4127;47.908;10.850;2023-04-24T10:07:26;1.80;;;1.70;;
8171;SDS011;4127;47.908;10.850;2023-04-24T10:09:54;2.10;;;1.90;;
8171;SDS011;4127;47.908;10.850;2023-04-24T10:12:22;2.07;;;1.90;;
8171;SDS011;4127;47.908;10.850;2023-04-24T10:14:51;2.37;;;2.00;;
8171;SDS011;4127;47.908;10.850;2023-04-24T10:17:33;2.37;;;1.67;;
8171;SDS011;4127;47.908;10.850;2023-04-24T10:20:01;2.10;;;1.90;;
8171;SDS011;4127;47.908;10.850;2023-04-24T10:22:29;1.60;;;1.50;;
8171;SDS011;4127;47.908;10.850;2023-04-24T10:25:13;3.37;;;1.70;;
8171;SDS011;4127;47.908;10.850;2023-04-24T10:28:17;2.10;;;1.70;;
8171;SDS011;4127;47.908;10.850;2023-04-24T10:30:49;1.67;;;1.57;;
8171;SDS011;4127;47.908;10.850;2023-04-24T10:33:17;3.20;;;2.90;;
8171;SDS011;4127;47.908;10.850;2023-04-24T10:35:45;2.30;;;2.10;;
8171;SDS011;4127;47.908;10.850;2023-04-24T10:38:29;1.90;;;1.80;;
8171;SDS011;4127;47.908;10.850;2023-04-24T10:40:57;2.13;;;1.90;;
8171;SDS011;4127;47.908;10.850;2023-04-24T10:43:34;2.70;;;2.10;;
8171;SDS011;4127;47.908;10.850;2023-04-24T10:46:02;2.30;;;2.10;;
8171;SDS011;4127;47.908;10.850;2023-04-24T10:48:52;1.97;;;1.87;;
8171;SDS011;4127;47.908;10.850;2023-04-24T10:51:24;1.90;;;1.80;;
8171;SDS011;4127;47.908;10.850;2023-04-24T10:59:49;4.37;;;2.00;;
8171;SDS011;4127;47.908;10.850;2023-04-24T11:02:18;2.33;;;2.13;;
8171;SDS011;4127;47.908;10.850;2023-04-24T11:05:08;1.60;;;1.50;;
8171;SDS011;4127;47.908;10.850;2023-04-24T11:08:24;2.03;;;1.93;;
8171;SDS011;4127;47.908;10.850;2023-04-24T11:10:54;1.67;;;1.53;;
8171;SDS011;4127;47.908;10.850;2023-04-24T11:13:25;2.07;;;1.80;;
8171;SDS011;4127;47.908;10.850;2023-04-24T11:21:47;2.70;;;1.80;;
8171;SDS011;4127;47.908;10.850;2023-04-24T11:27:31;2.23;;;2.03;;
8171;SDS011;4127;47.908;10.850;2023-04-24T11:30:09;2.37;;;1.80;;
8171;SDS011;4127;47.908;10.850;2023-04-24T11:32:37;1.77;;;1.53;;
8171;SDS011;4127;47.908;10.850;2023-04-24T11:35:16;2.13;;;1.77;;
8171;SDS011;4127;47.908;10.850;2023-04-24T11:37:45;3.10;;;1.90;;
8171;SDS011;4127;47.908;10.850;2023-04-24T11:40:20;2.17;;;1.90;;
8171;SDS011;4127;47.908;10.850;2023-04-24T11:42:54;2.40;;;2.20;;
8171;SDS011;4127;47.908;10.850;2023-04-24T11:45:27;2.20;;;2.00;;
8171;SDS011;4127;47.908;10.850;2023-04-24T11:47:57;2.40;;;2.07;;
8171;SDS011;4127;47.908;10.850;2023-04-24T11:50:26;2.73;;;2.50;;
8171;SDS011;4127;47.908;10.850;2023-04-24T11:53:06;2.37;;;2.10;;
8171;SDS011;4127;47.908;10.850;2023-04-24T11:55:38;3.50;;;3.20;;
8171;SDS011;4127;47.908;10.850;2023-04-24T11:58:05;6.73;;;2.90;;
8171;SDS011;4127;47.908;10.850;2023-04-24T12:00:58;3.33;;;3.03;;
8171;SDS011;4127;47.908;10.850;2023-04-24T12:04:00;3.43;;;2.80;;
8171;SDS011;4127;47.908;10.850;2023-04-24T12:07:02;2.83;;;2.50;;
8171;SDS011;4127;47.908;10.850;2023-04-24T12:10:19;4.20;;;2.90;;
8171;SDS011;4127;47.908;10.850;2023-04-24T12:13:12;3.37;;;2.53;;
8171;SDS011;4127;47.908;10.850;2023-04-24T12:15:42;3.87;;;3.20;;
8171;SDS011;4127;47.908;10.850;2023-04-24T12:18:11;3.67;;;2.60;;
8171;SDS011;4127;47.908;10.850;2023-04-24T12:20:40;3.67;;;3.30;;
8171;SDS011;4127;47.908;10.850;2023-04-24T12:23:07;2.50;;;2.30;;
8171;SDS011;4127;47.908;10.850;2023-04-24T12:25:34;3.40;;;3.10;;
8171;SDS011;4127;47.908;10.850;2023-04-24T12:30:32;2.10;;;1.90;;
8171;SDS011;4127;47.908;10.850;2023-04-24T12:33:01;1.97;;;1.80;;
8171;SDS011;4127;47.908;10.850;2023-04-24T12:35:30;1.83;;;1.73;;
8171;SDS011;4127;47.908;10.850;2023-04-24T12:38:06;1.93;;;1.70;;
8171;SDS011;4127;47.908;10.850;2023-04-24T12:40:34;1.57;;;1.47;;
8171;SDS011;4127;47.908;10.850;2023-04-24T12:43:01;1.97;;;1.77;;
8171;SDS011;4127;47.908;10.850;2023-04-24T12:45:28;1.93;;;1.80;;
8171;SDS011;4127;47.908;10.850;2023-04-24T12:47:55;1.80;;;1.70;;
8171;SDS011;4127;47.908;10.850;2023-04-24T12:50:22;1.90;;;1.80;;
8171;SDS011;4127;47.908;10.850;2023-04-24T12:52:49;3.17;;;2.40;;
8171;SDS011;4127;47.908;10.850;2023-04-24T12:55:15;2.20;;;2.10;;
8171;SDS011;4127;47.908;10.850;2023-04-24T12:57:42;2.90;;;2.23;;
8171;SDS011;4127;47.908;10.850;2023-04-24T13:00:09;2.00;;;1.80;;
8171;SDS011;4127;47.908;10.850;2023-04-24T13:02:36;2.07;;;1.83;;
8171;SDS011;4127;47.908;10.850;2023-04-24T13:05:03;2.10;;;1.47;;
8171;SDS011;4127;47.908;10.850;2023-04-24T13:07:30;2.30;;;1.80;;
8171;SDS011;4127;47.908;10.850;2023-04-24T13:09:57;1.53;;;1.30;;
8171;SDS011;4127;47.908;10.850;2023-04-24T13:12:24;2.63;;;1.83;;
8171;SDS011;4127;47.908;10.850;2023-04-24T13:14:52;2.17;;;1.70;;
8171;SDS011;4127;47.908;10.850;2023-04-24T13:17:19;1.70;;;1.60;;
8171;SDS011;4127;47.908;10.850;2023-04-24T13:19:46;4.07;;;1.80;;
8171;SDS011;4127;47.908;10.850;2023-04-24T13:22:15;1.60;;;1.50;;
8171;SDS011;4127;47.908;10.850;2023-04-24T13:24:43;2.43;;;1.60;;
8171;SDS011;4127;47.908;10.850;2023-04-24T13:27:10;1.73;;;1.60;;
8171;SDS011;4127;47.908;10.850;2023-04-24T13:29:37;2.23;;;2.03;;
8171;SDS011;4127;47.908;10.850;2023-04-24T13:32:03;2.20;;;2.00;;
8171;SDS011;4127;47.908;10.850;2023-04-24T13:34:30;2.20;;;1.90;;
8171;SDS011;4127;47.908;10.850;2023-04-24T13:36:58;2.10;;;1.90;;
8171;SDS011;4127;47.908;10.850;2023-04-24T13:39:25;1.97;;;1.67;;
8171;SDS011;4127;47.908;10.850;2023-04-24T13:41:53;2.20;;;2.00;;
8171;SDS011;4127;47.908;10.850;2023-04-24T13:44:20;2.00;;;1.90;;
8171;SDS011;4127;47.908;10.850;2023-04-24T13:46:52;2.10;;;1.90;;
8171;SDS011;4127;47.908;10.850;2023-04-24T13:49:21;2.40;;;2.20;;
8171;SDS011;4127;47.908;10.850;2023-04-24T13:51:48;2.10;;;1.90;;
8171;SDS011;4127;47.908;10.850;2023-04-24T13:54:14;1.93;;;1.73;;
8171;SDS011;4127;47.908;10.850;2023-04-24T13:56:41;2.20;;;1.97;;
8171;SDS011;4127;47.908;10.850;2023-04-24T13:59:08;3.20;;;2.10;;
8171;SDS011;4127;47.908;10.850;2023-04-24T14:01:35;1.97;;;1.70;;
8171;SDS011;4127;47.908;10.850;2023-04-24T14:04:02;2.47;;;2.10;;
8171;SDS011;4127;47.908;10.850;2023-04-24T14:06:29;2.40;;;2.20;;
8171;SDS011;4127;47.908;10.850;2023-04-24T14:08:55;3.63;;;2.23;;
8171;SDS011;4127;47.908;10.850;2023-04-24T14:11:22;2.40;;;2.20;;
8171;SDS011;4127;47.908;10.850;2023-04-24T14:13:49;3.10;;;2.77;;
8171;SDS011;4127;47.908;10.850;2023-04-24T14:16:16;2.70;;;2.20;;
8171;SDS011;4127;47.908;10.850;2023-04-24T14:18:43;2.30;;;2.10;;
8171;SDS011;4127;47.908;10.850;2023-04-24T14:21:10;2.30;;;1.80;;
8171;SDS011;4127;47.908;10.850;2023-04-24T14:23:37;1.93;;;1.80;;
8171;SDS011;4127;47.908;10.850;2023-04-24T14:26:04;2.40;;;2.20;;
8171;SDS011;4127;47.908;10.850;2023-04-24T14:28:30;2.63;;;2.43;;
8171;SDS011;4127;47.908;10.850;2023-04-24T14:30:58;3.10;;;2.80;;
8171;SDS011;4127;47.908;10.850;2023-04-24T14:33:25;4.53;;;3.20;;
8171;SDS011;4127;47.908;10.850;2023-04-24T14:35:52;2.17;;;1.97;;
8171;SDS011;4127;47.908;10.850;2023-04-24T14:38:19;2.53;;;2.33;;
8171;SDS011;4127;47.908;10.850;2023-04-24T14:40:46;2.30;;;2.03;;
8171;SDS011;4127;47.908;10.850;2023-04-24T14:43:16;3.43;;;2.50;;
8171;SDS011;4127;47.908;10.850;2023-04-24T14:45:43;2.10;;;1.90;;
8171;SDS011;4127;47.908;10.850;2023-04-24T14:48:09;2.87;;;1.93;;
8171;SDS011;4127;47.908;10.850;2023-04-24T14:50:37;2.20;;;2.00;;
8171;SDS011;4127;47.908;10.850;2023-04-24T14:53:04;1.70;;;1.60;;
8171;SDS011;4127;47.908;10.850;2023-04-24T14:55:31;2.53;;;2.10;;
8171;SDS011;4127;47.908;10.850;2023-04-24T14:57:59;3.00;;;2.50;;
8171;SDS011;4127;47.908;10.850;2023-04-24T15:00:26;2.03;;;1.60;;
8171;SDS011;4127;47.908;10.850;2023-04-24T15:02:53;2.80;;;2.40;;
8171;SDS011;4127;47.908;10.850;2023-04-24T15:05:21;1.90;;;1.80;;
8171;SDS011;4127;47.908;10.850;2023-04-24T15:07:49;2.23;;;2.03;;
8171;SDS011;4127;47.908;10.850;2023-04-24T15:10:16;4.00;;;3.07;;
8171;SDS011;4127;47.908;10.850;2023-04-24T15:12:43;2.80;;;2.60;;
8171;SDS011;4127;47.908;10.850;2023-04-24T15:15:11;3.13;;;2.83;;
8171;SDS011;4127;47.908;10.850;2023-04-24T15:17:37;2.93;;;2.60;;
8171;SDS011;4127;47.908;10.850;2023-04-24T15:20:04;4.20;;;3.80;;
8171;SDS011;4127;47.908;10.850;2023-04-24T15:22:32;7.07;;;6.30;;
8171;SDS011;4127;47.908;10.850;2023-04-24T15:24:59;12.03;;;10.53;;
8171;SDS011;4127;47.908;10.850;2023-04-24T15:27:27;5.60;;;5.10;;
8171;SDS011;4127;47.908;10.850;2023-04-24T15:29:53;4.50;;;4.10;;
8171;SDS011;4127;47.908;10.850;2023-04-24T15:32:20;6.43;;;5.50;;
8171;SDS011;4127;47.908;10.850;2023-04-24T15:34:48;5.63;;;5.13;;
8171;SDS011;4127;47.908;10.850;2023-04-24T15:37:30;1.90;;;1.80;;
8171;SDS011;4127;47.908;10.850;2023-04-24T15:39:57;2.27;;;2.07;;
8171;SDS011;4127;47.908;10.850;2023-04-24T15:42:26;2.47;;;2.00;;
8171;SDS011;4127;47.908;10.850;2023-04-24T15:44:52;3.43;;;1.97;;
8171;SDS011;4127;47.908;10.850;2023-04-24T15:47:19;2.20;;;2.00;;
8171;SDS011;4127;47.908;10.850;2023-04-24T15:49:46;2.00;;;1.80;;
8171;SDS011;4127;47.908;10.850;2023-04-24T15:52:13;2.00;;;1.60;;
8171;SDS011;4127;47.908;10.850;2023-04-24T15:54:39;3.30;;;3.00;;
8171;SDS011;4127;47.908;10.850;2023-04-24T15:57:06;2.20;;;2.00;;
8171;SDS011;4127;47.908;10.850;2023-04-24T15:59:33;2.10;;;1.90;;
8171;SDS011;4127;47.908;10.850;2023-04-24T16:02:00;2.17;;;1.97;;
8171;SDS011;4127;47.908;10.850;2023-04-24T16:04:27;2.50;;;2.30;;
8171;SDS011;4127;47.908;10.850;2023-04-24T16:06:54;3.03;;;1.60;;
8171;SDS011;4127;47.908;10.850;2023-04-24T16:09:22;2.10;;;1.90;;
8171;SDS011;4127;47.908;10.850;2023-04-24T16:11:49;2.07;;;1.87;;
8171;SDS011;4127;47.908;10.850;2023-04-24T16:14:16;1.90;;;1.80;;
8171;SDS011;4127;47.908;10.850;2023-04-24T16:16:43;1.63;;;1.53;;
8171;SDS011;4127;47.908;10.850;2023-04-24T16:19:09;3.10;;;1.70;;
8171;SDS011;4127;47.908;10.850;2023-04-24T16:21:36;2.33;;;2.13;;
8171;SDS011;4127;47.908;10.850;2023-04-24T16:24:03;2.40;;;1.90;;
8171;SDS011;4127;47.908;10.850;2023-04-24T16:26:30;2.97;;;2.10;;
8171;SDS011;4127;47.908;10.850;2023-04-24T16:28:56;2.43;;;2.23;;
8171;SDS011;4127;47.908;10.850;2023-04-24T16:31:23;2.30;;;1.80;;
8171;SDS011;4127;47.908;10.850;2023-04-24T16:33:51;3.37;;;1.90;;
8171;SDS011;4127;47.908;10.850;2023-04-24T16:36:19;2.67;;;1.83;;
8171;SDS011;4127;47.908;10.850;2023-04-24T16:38:46;3.13;;;2.27;;
8171;SDS011;4127;47.908;10.850;2023-04-24T16:41:36;2.30;;;2.20;;
8171;SDS011;4127;47.908;10.850;2023-04-24T16:44:03;2.67;;;2.30;;
8171;SDS011;4127;47.908;10.850;2023-04-24T16:46:29;2.10;;;1.83;;
8171;SDS011;4127;47.908;10.850;2023-04-24T16:48:56;2.20;;;2.00;;
8171;SDS011;4127;47.908;10.850;2023-04-24T16:51:23;2.10;;;1.90;;
8171;SDS011;4127;47.908;10.850;2023-04-24T16:53:51;2.90;;;2.37;;
8171;SDS011;4127;47.908;10.850;2023-04-24T16:56:18;3.57;;;3.20;;
8171;SDS011;4127;47.908;10.850;2023-04-24T16:58:45;3.70;;;2.60;;
8171;SDS011;4127;47.908;10.850;2023-04-24T17:01:12;2.03;;;1.83;;
8171;SDS011;4127;47.908;10.850;2023-04-24T17:03:41;3.87;;;3.33;;
8171;SDS011;4127;47.908;10.850;2023-04-24T17:06:09;2.40;;;2.20;;
8171;SDS011;4127;47.908;10.850;2023-04-24T17:08:36;2.50;;;2.30;;
8171;SDS011;4127;47.908;10.850;2023-04-24T17:11:03;2.80;;;2.50;;
8171;SDS011;4127;47.908;10.850;2023-04-24T17:13:29;2.40;;;2.20;;
8171;SDS011;4127;47.908;10.850;2023-04-24T17:15:56;3.67;;;3.30;;
8171;SDS011;4127;47.908;10.850;2023-04-24T17:18:23;3.70;;;3.40;;
8171;SDS011;4127;47.908;10.850;2023-04-24T17:20:50;4.27;;;3.23;;
8171;SDS011;4127;47.908;10.850;2023-04-24T17:23:17;4.57;;;3.33;;
8171;SDS011;4127;47.908;10.850;2023-04-24T17:25:45;2.10;;;2.00;;
8171;SDS011;4127;47.908;10.850;2023-04-24T17:28:45;3.03;;;2.27;;
8171;SDS011;4127;47.908;10.850;2023-04-24T17:31:05;2.28;;;2.10;;
8171;SDS011;4127;47.908;10.850;2023-04-24T17:33:32;2.53;;;2.07;;
8171;SDS011;4127;47.908;10.850;2023-04-24T17:35:59;2.20;;;2.00;;
8171;SDS011;4127;47.908;10.850;2023-04-24T17:38:28;1.83;;;1.73;;
8171;SDS011;4127;47.908;10.850;2023-04-24T17:40:55;4.37;;;2.20;;
8171;SDS011;4127;47.908;10.850;2023-04-24T17:43:23;2.50;;;2.10;;
8171;SDS011;4127;47.908;10.850;2023-04-24T17:45:50;3.00;;;2.03;;
8171;SDS011;4127;47.908;10.850;2023-04-24T17:48:21;3.13;;;2.83;;
8171;SDS011;4127;47.908;10.850;2023-04-24T17:50:48;5.60;;;5.00;;
8171;SDS011;4127;47.908;10.850;2023-04-24T17:53:15;5.10;;;3.90;;
8171;SDS011;4127;47.908;10.850;2023-04-24T17:55:43;3.50;;;3.17;;
8171;SDS011;4127;47.908;10.850;2023-04-24T17:58:14;4.17;;;3.33;;
8171;SDS011;4127;47.908;10.850;2023-04-24T18:00:40;2.90;;;2.70;;
8171;SDS011;4127;47.908;10.850;2023-04-24T18:03:07;3.20;;;2.77;;
8171;SDS011;4127;47.908;10.850;2023-04-24T18:05:35;3.37;;;2.30;;
8171;SDS011;4127;47.908;10.850;2023-04-24T18:08:02;3.63;;;3.33;;
8171;SDS011;4127;47.908;10.850;2023-04-24T18:10:30;3.90;;;3.50;;
8171;SDS011;4127;47.908;10.850;2023-04-24T18:12:58;5.90;;;5.30;;
8171;SDS011;4127;47.908;10.850;2023-04-24T18:15:25;4.83;;;4.43;;
8171;SDS011;4127;47.908;10.850;2023-04-24T18:17:52;6.17;;;5.57;;
8171;SDS011;4127;47.908;10.850;2023-04-24T18:20:19;3.47;;;3.23;;
8171;SDS011;4127;47.908;10.850;2023-04-24T18:22:46;3.20;;;2.90;;
8171;SDS011;4127;47.908;10.850;2023-04-24T18:25:13;3.80;;;3.50;;
8171;SDS011;4127;47.908;10.850;2023-04-24T18:27:40;4.13;;;3.40;;
8171;SDS011;4127;47.908;10.850;2023-04-24T18:30:08;5.30;;;3.70;;
8171;SDS011;4127;47.908;10.850;2023-04-24T18:32:39;3.57;;;3.27;;
8171;SDS011;4127;47.908;10.850;2023-04-24T18:35:07;3.20;;;2.90;;
8171;SDS011;4127;47.908;10.850;2023-04-24T18:37:34;3.30;;;3.00;;
8171;SDS011;4127;47.908;10.850;2023-04-24T18:40:00;3.97;;;2.90;;
8171;SDS011;4127;47.908;10.850;2023-04-24T18:42:28;3.70;;;3.40;;
8171;SDS011;4127;47.908;10.850;2023-04-24T18:44:55;3.53;;;3.23;;
8171;SDS011;4127;47.908;10.850;2023-04-24T18:47:32;4.37;;;3.83;;
8171;SDS011;4127;47.908;10.850;2023-04-24T18:49:59;2.93;;;2.63;;
8171;SDS011;4127;47.908;10.850;2023-04-24T18:52:25;2.10;;;1.90;;
8171;SDS011;4127;47.908;10.850;2023-04-24T18:54:52;2.07;;;1.77;;
8171;SDS011;4127;47.908;10.850;2023-04-24T18:57:19;2.70;;;1.67;;
8171;SDS011;4127;47.908;10.850;2023-04-24T18:59:46;1.73;;;1.63;;
8171;SDS011;4127;47.908;10.850;2023-04-24T19:02:13;2.60;;;2.40;;
8171;SDS011;4127;47.908;10.850;2023-04-24T19:04:41;2.00;;;1.90;;
8171;SDS011;4127;47.908;10.850;2023-04-24T19:07:07;1.87;;;1.70;;
8171;SDS011;4127;47.908;10.850;2023-04-24T19:09:35;2.20;;;1.97;;
8171;SDS011;4127;47.908;10.850;2023-04-24T19:12:02;1.80;;;1.70;;
8171;SDS011;4127;47.908;10.850;2023-04-24T19:14:29;2.43;;;2.00;;
8171;SDS011;4127;47.908;10.850;2023-04-24T19:16:56;2.07;;;1.97;;
8171;SDS011;4127;47.908;10.850;2023-04-24T19:19:23;1.80;;;1.70;;
8171;SDS011;4127;47.908;10.850;2023-04-24T19:21:51;2.33;;;2.03;;
8171;SDS011;4127;47.908;10.850;2023-04-24T19:24:18;1.90;;;1.80;;
8171;SDS011;4127;47.908;10.850;2023-04-24T19:26:46;2.10;;;1.80;;
8171;SDS011;4127;47.908;10.850;2023-04-24T19:29:13;2.07;;;1.87;;
8171;SDS011;4127;47.908;10.850;2023-04-24T19:31:40;2.33;;;1.63;;
8171;SDS011;4127;47.908;10.850;2023-04-24T19:34:16;2.27;;;1.80;;
8171;SDS011;4127;47.908;10.850;2023-04-24T19:36:43;2.10;;;1.90;;
8171;SDS011;4127;47.908;10.850;2023-04-24T19:39:19;2.07;;;1.87;;
8171;SDS011;4127;47.908;10.850;2023-04-24T19:41:49;1.70;;;1.50;;
8171;SDS011;4127;47.908;10.850;2023-04-24T19:44:16;2.57;;;1.70;;
8171;SDS011;4127;47.908;10.850;2023-04-24T19:46:47;1.80;;;1.70;;
8171;SDS011;4127;47.908;10.850;2023-04-24T19:52:47;1.70;;;1.60;;
8171;SDS011;4127;47.908;10.850;2023-04-24T19:55:37;1.90;;;1.80;;
8171;SDS011;4127;47.908;10.850;2023-04-24T19:58:18;2.07;;;1.90;;
8171;SDS011;4127;47.908;10.850;2023-04-24T20:01:25;1.60;;;1.50;;
8171;SDS011;4127;47.908;10.850;2023-04-24T20:10:36;1.80;;;1.67;;
8171;SDS011;4127;47.908;10.850;2023-04-24T20:28:09;3.27;;;2.10;;
8171;SDS011;4127;47.908;10.850;2023-04-24T20:31:43;1.93;;;1.83;;
8171;SDS011;4127;47.908;10.850;2023-04-24T20:54:59;2.63;;;2.10;;
8171;SDS011;4127;47.908;10.850;2023-04-24T20:57:26;1.93;;;1.73;;
8171;SDS011;4127;47.908;10.850;2023-04-24T20:59:53;2.30;;;1.90;;
8171;SDS011;4127;47.908;10.850;2023-04-24T21:02:20;2.60;;;2.20;;
8171;SDS011;4127;47.908;10.850;2023-04-24T21:04:47;2.07;;;1.80;;
8171;SDS011;4127;47.908;10.850;2023-04-24T21:07:13;2.23;;;2.03;;
8171;SDS011;4127;47.908;10.850;2023-04-24T21:09:40;2.10;;;1.90;;
8171;SDS011;4127;47.908;10.850;2023-04-24T21:12:07;2.27;;;2.00;;
8171;SDS011;4127;47.908;10.850;2023-04-24T21:14:34;2.10;;;2.00;;
8171;SDS011;4127;47.908;10.850;2023-04-24T21:17:00;1.90;;;1.80;;
8171;SDS011;4127;47.908;10.850;2023-04-24T21:19:28;2.40;;;2.20;;
8171;SDS011;4127;47.908;10.850;2023-04-24T21:21:55;2.20;;;2.00;;
8171;SDS011;4127;47.908;10.850;2023-04-24T21:24:22;2.73;;;2.53;;
8171;SDS011;4127;47.908;10.850;2023-04-24T21:26:48;2.30;;;2.10;;
8171;SDS011;4127;47.908;10.850;2023-04-24T21:29:15;2.00;;;1.90;;
8171;SDS011;4127;47.908;10.850;2023-04-24T21:31:42;2.53;;;2.33;;
8171;SDS011;4127;47.908;10.850;2023-04-24T21:34:09;1.90;;;1.80;;
8171;SDS011;4127;47.908;10.850;2023-04-24T21:36:36;2.07;;;1.97;;
8171;SDS011;4127;47.908;10.850;2023-04-24T21:39:03;2.47;;;2.27;;
8171;SDS011;4127;47.908;10.850;2023-04-24T21:41:29;2.17;;;1.97;;
8171;SDS011;4127;47.908;10.850;2023-04-24T21:43:56;2.43;;;2.23;;
8171;SDS011;4127;47.908;10.850;2023-04-24T21:46:24;2.07;;;1.97;;
8171;SDS011;4127;47.908;10.850;2023-04-24T21:48:51;2.67;;;2.47;;
8171;SDS011;4127;47.908;10.850;2023-04-24T21:51:18;2.40;;;2.20;;
8171;SDS011;4127;47.908;10.850;2023-04-24T21:53:45;2.40;;;2.20;;
8171;SDS011;4127;47.908;10.850;2023-04-24T21:56:12;2.50;;;2.27;;
8171;SDS011;4127;47.908;10.850;2023-04-24T21:58:39;2.40;;;2.20;;
8171;SDS011;4127;47.908;10.850;2023-04-24T22:01:06;2.17;;;1.97;;
8171;SDS011;4127;47.908;10.850;2023-04-24T22:03:34;2.63;;;2.43;;
8171;SDS011;4127;47.908;10.850;2023-04-24T22:06:01;2.00;;;1.90;;
8171;SDS011;4127;47.908;10.850;2023-04-24T22:08:28;2.57;;;2.20;;
8171;SDS011;4127;47.908;10.850;2023-04-24T22:10:55;2.10;;;1.90;;
8171;SDS011;4127;47.908;10.850;2023-04-24T22:13:21;3.40;;;2.20;;
8171;SDS011;4127;47.908;10.850;2023-04-24T22:15:48;2.30;;;2.10;;
8171;SDS011;4127;47.908;10.850;2023-04-24T22:18:16;2.50;;;2.30;;
8171;SDS011;4127;47.908;10.850;2023-04-24T22:20:44;3.00;;;2.10;;
8171;SDS011;4127;47.908;10.850;2023-04-24T22:23:11;2.70;;;2.23;;
8171;SDS011;4127;47.908;10.850;2023-04-24T22:25:38;2.27;;;2.13;;
8171;SDS011;4127;47.908;10.850;2023-04-24T22:28:05;2.70;;;2.13;;
8171;SDS011;4127;47.908;10.850;2023-04-24T22:30:32;2.10;;;1.93;;
8171;SDS011;4127;47.908;10.850;2023-04-24T22:32:58;2.73;;;2.23;;
8171;SDS011;4127;47.908;10.850;2023-04-24T22:35:25;2.83;;;2.30;;
8171;SDS011;4127;47.908;10.850;2023-04-24T22:37:53;2.30;;;2.10;;
8171;SDS011;4127;47.908;10.850;2023-04-24T22:40:20;2.27;;;2.07;;
8171;SDS011;4127;47.908;10.850;2023-04-24T22:42:47;1.93;;;1.80;;
8171;SDS011;4127;47.908;10.850;2023-04-24T22:45:14;2.37;;;2.10;;
8171;SDS011;4127;47.908;10.850;2023-04-24T22:47:41;2.37;;;2.17;;
8171;SDS011;4127;47.908;10.850;2023-04-24T22:50:07;2.50;;;2.10;;
8171;SDS011;4127;47.908;10.850;2023-04-24T22:52:35;2.10;;;1.90;;
8171;SDS011;4127;47.908;10.850;2023-04-24T22:55:02;2.10;;;2.00;;
8171;SDS011;4127;47.908;10.850;2023-04-24T22:57:30;2.53;;;2.23;;
8171;SDS011;4127;47.908;10.850;2023-04-24T22:59:57;2.53;;;2.33;;
8171;SDS011;4127;47.908;10.850;2023-04-24T23:02:24;2.40;;;2.20;;
8171;SDS011;4127;47.908;10.850;2023-04-24T23:04:51;3.10;;;2.23;;
8171;SDS011;4127;47.908;10.850;2023-04-24T23:07:19;2.30;;;2.10;;
8171;SDS011;4127;47.908;10.850;2023-04-24T23:09:46;3.47;;;2.13;;
8171;SDS011;4127;47.908;10.850;2023-04-24T23:12:12;2.63;;;2.43;;
8171;SDS011;4127;47.908;10.850;2023-04-24T23:14:39;2.10;;;2.00;;
8171;SDS011;4127;47.908;10.850;2023-04-24T23:17:06;4.00;;;2.20;;
8171;SDS011;4127;47.908;10.850;2023-04-24T23:19:33;2.20;;;2.03;;
8171;SDS011;4127;47.908;10.850;2023-04-24T23:22:00;2.50;;;2.30;;
8171;SDS011;4127;47.908;10.850;2023-04-24T23:24:26;3.87;;;2.63;;
8171;SDS011;4127;47.908;10.850;2023-04-24T23:26:53;2.43;;;2.00;;
8171;SDS011;4127;47.908;10.850;2023-04-24T23:29:20;2.53;;;2.33;;
8171;SDS011;4127;47.908;10.850;2023-04-24T23:31:48;2.27;;;2.17;;
8171;SDS011;4127;47.908;10.850;2023-04-24T23:34:15;4.03;;;2.27;;
8171;SDS011;4127;47.908;10.850;2023-04-24T23:36:43;3.63;;;2.50;;
8171;SDS011;4127;47.908;10.850;2023-04-24T23:39:13;2.60;;;2.40;;
8171;SDS011;4127;47.908;10.850;2023-04-24T23:41:40;2.47;;;2.10;;
8171;SDS011;4127;47.908;10.850;2023-04-24T23:44:09;2.80;;;2.60;;
8171;SDS011;4127;47.908;10.850;2023-04-24T23:46:36;2.80;;;2.60;;
8171;SDS011;4127;47.908;10.850;2023-04-24T23:49:03;2.97;;;2.20;;
8171;SDS011;4127;47.908;10.850;2023-04-24T23:51:30;2.67;;;2.30;;
8171;SDS011;4127;47.908;10.850;2023-04-24T23:53:57;2.50;;;2.30;;
8171;SDS011;4127;47.908;10.850;2023-04-24T23:56:24;3.10;;;2.43;;
8171;SDS011;4127;47.908;10.850;2023-04-24T23:58:52;2.60;;;2.40;;
